createdAt,value
2018-12-07T00:01:12.306Z,98414.31
2018-12-07T00:03:41.251Z,98422.83
2018-12-07T00:06:10.101Z,98410.78
2018-12-07T00:08:38.932Z,98408.08
2018-12-07T00:11:07.810Z,98404.96
2018-12-07T00:13:36.665Z,98401.23
2018-12-07T00:16:05.670Z,98391.66
2018-12-07T00:18:34.486Z,98401.46
2018-12-07T00:21:04.408Z,98395.54
2018-12-07T00:23:33.286Z,98393.64
2018-12-07T00:26:02.172Z,98397.78
2018-12-07T00:28:31.046Z,98389.27
2018-12-07T00:31:01.000Z,98393.81
2018-12-07T00:33:29.882Z,98383.14
2018-12-07T00:35:58.728Z,98390.98
2018-12-07T00:38:27.569Z,98391.28
2018-12-07T00:40:56.560Z,98389.32
2018-12-07T00:43:26.247Z,98379.75
2018-12-07T00:45:55.083Z,98379.59
2018-12-07T00:48:24.427Z,98378.95
2018-12-07T00:50:53.323Z,98384.15
2018-12-07T00:53:22.152Z,98373.05
2018-12-07T00:55:51.027Z,98370.98
2018-12-07T00:58:19.871Z,98367.95
2018-12-07T01:00:48.774Z,98367.95
2018-12-07T01:03:17.671Z,98362.75
2018-12-07T01:05:46.627Z,98365.20
2018-12-07T01:08:15.463Z,98351.86
2018-12-07T01:10:44.294Z,98355.41
2018-12-07T01:13:13.151Z,98352.16
2018-12-07T01:15:42.035Z,98354.91
2018-12-07T01:18:10.930Z,98348.61
2018-12-07T01:20:39.813Z,98360.16
2018-12-07T01:23:08.646Z,98359.36
2018-12-07T01:25:37.503Z,98358.02
2018-12-07T01:28:06.466Z,98358.52
2018-12-07T01:30:35.344Z,98353.06
2018-12-07T01:33:04.243Z,98356.56
2018-12-07T01:35:33.174Z,98352.31
2018-12-07T01:38:02.120Z,98358.20
2018-12-07T01:40:31.036Z,98352.45
2018-12-07T01:42:59.952Z,98346.80
2018-12-07T01:45:28.783Z,98345.77
2018-12-07T01:47:57.671Z,98339.41
2018-12-07T01:50:26.581Z,98336.31
2018-12-07T01:52:55.423Z,98329.64
2018-12-07T01:55:24.283Z,98324.05
2018-12-07T01:57:53.174Z,98319.14
2018-12-07T02:00:22.557Z,98320.05
2018-12-07T02:02:51.397Z,98324.89
2018-12-07T02:05:20.239Z,98322.80
2018-12-07T02:07:49.070Z,98316.34
2018-12-07T02:10:17.914Z,98313.70
2018-12-07T02:12:47.199Z,98308.39
2018-12-07T02:15:16.122Z,98310.28
2018-12-07T02:17:45.016Z,98306.44
2018-12-07T02:20:13.862Z,98303.23
2018-12-07T02:22:42.790Z,98303.78
2018-12-07T02:25:11.679Z,98313.79
2018-12-07T02:27:46.053Z,98299.19
2018-12-07T02:30:14.957Z,98301.28
2018-12-07T02:32:43.796Z,98300.59
2018-12-07T02:35:12.713Z,98287.78
2018-12-07T02:37:41.625Z,98284.27
2018-12-07T02:40:10.549Z,98276.66
2018-12-07T02:42:39.532Z,98273.34
2018-12-07T02:45:08.453Z,98270.09
2018-12-07T02:47:37.287Z,98272.80
2018-12-07T02:50:06.191Z,98273.41
2018-12-07T02:52:35.099Z,98270.15
2018-12-07T02:55:04.292Z,98265.16
2018-12-07T02:57:33.145Z,98269.66
2018-12-07T03:00:04.451Z,98265.72
2018-12-07T03:02:35.416Z,98273.16
2018-12-07T03:05:04.731Z,98274.36
2018-12-07T03:07:33.667Z,98274.56
2018-12-07T03:10:02.578Z,98270.04
2018-12-07T03:12:31.753Z,98274.07
2018-12-07T03:15:00.635Z,98272.50
2018-12-07T03:17:29.902Z,98263.79
2018-12-07T03:19:58.734Z,98259.38
2018-12-07T03:22:27.637Z,98254.91
2018-12-07T03:24:56.475Z,98255.29
2018-12-07T03:27:25.400Z,98255.16
2018-12-07T03:29:54.294Z,98243.62
2018-12-07T03:32:23.213Z,98248.83
2018-12-07T03:34:52.100Z,98249.58
2018-12-07T03:37:20.930Z,98244.48
2018-12-07T03:39:49.827Z,98240.48
2018-12-07T03:42:18.735Z,98239.30
2018-12-07T03:44:47.580Z,98236.10
2018-12-07T03:47:16.535Z,98230.02
2018-12-07T03:49:45.359Z,98230.77
2018-12-07T03:52:14.307Z,98228.23
2018-12-07T03:54:43.464Z,98231.73
2018-12-07T03:57:12.297Z,98233.40
2018-12-07T03:59:41.229Z,98227.19
2018-12-07T04:02:10.091Z,98222.83
2018-12-07T04:04:38.915Z,98219.88
2018-12-07T04:07:07.780Z,98218.77
2018-12-07T04:09:36.713Z,98226.09
2018-12-07T04:12:05.627Z,98216.26
2018-12-07T04:14:34.536Z,98218.84
2018-12-07T04:17:03.435Z,98220.80
2018-12-07T04:19:32.271Z,98214.91
2018-12-07T04:22:01.200Z,98211.47
2018-12-07T04:24:30.111Z,98200.59
2018-12-07T04:26:58.971Z,98198.74
2018-12-07T04:29:27.868Z,98194.19
2018-12-07T04:31:56.993Z,98195.88
2018-12-07T04:34:25.916Z,98196.65
2018-12-07T04:36:54.748Z,98198.61
2018-12-07T04:39:23.617Z,98192.64
2018-12-07T04:41:52.512Z,98188.53
2018-12-07T04:44:21.411Z,98194.37
2018-12-07T04:46:52.297Z,98182.39
2018-12-07T04:49:21.232Z,98183.38
2018-12-07T04:51:50.097Z,98189.40
2018-12-07T04:54:19.144Z,98182.88
2018-12-07T04:56:48.004Z,98187.80
2018-12-07T04:59:16.899Z,98189.09
2018-12-07T05:01:45.745Z,98188.61
2018-12-07T05:04:14.588Z,98184.61
2018-12-07T05:06:43.425Z,98181.54
2018-12-07T05:09:12.299Z,98178.09
2018-12-07T05:11:41.247Z,98176.92
2018-12-07T05:14:10.150Z,98175.45
2018-12-07T05:16:39.153Z,98175.02
2018-12-07T05:19:08.060Z,98175.39
2018-12-07T05:21:36.951Z,98173.35
2018-12-07T05:24:05.826Z,98177.16
2018-12-07T05:26:34.748Z,98173.35
2018-12-07T05:29:03.691Z,98172.25
2018-12-07T05:31:32.553Z,98170.21
2018-12-07T05:34:01.407Z,98177.52
2018-12-07T05:36:30.381Z,98175.70
2018-12-07T05:38:59.273Z,98173.97
2018-12-07T05:41:28.117Z,98171.75
2018-12-07T05:43:57.982Z,98168.60
2018-12-07T05:46:28.362Z,98172.41
2018-12-07T05:48:57.279Z,98167.76
2018-12-07T05:51:26.231Z,98162.11
2018-12-07T05:53:55.158Z,98153.37
2018-12-07T05:56:24.098Z,98147.95
2018-12-07T05:58:52.940Z,98141.51
2018-12-07T06:01:21.851Z,98138.77
2018-12-07T06:03:50.682Z,98132.21
2018-12-07T06:06:19.538Z,98137.20
2018-12-07T06:08:48.484Z,98132.77
2018-12-07T06:11:17.387Z,98127.88
2018-12-07T06:13:46.224Z,98123.68
2018-12-07T06:16:15.090Z,98120.11
2018-12-07T06:18:43.934Z,98121.22
2018-12-07T06:21:12.785Z,98124.92
2018-12-07T06:23:41.659Z,98115.77
2018-12-07T06:26:10.484Z,98119.69
2018-12-07T06:28:39.519Z,98128.00
2018-12-07T06:31:08.378Z,98119.09
2018-12-07T06:33:37.235Z,98121.08
2018-12-07T06:36:06.192Z,98120.33
2018-12-07T06:38:35.348Z,98123.56
2018-12-07T06:41:04.382Z,98117.84
2018-12-07T06:43:33.884Z,98122.32
2018-12-07T06:46:02.736Z,98121.84
2018-12-07T06:48:31.631Z,98119.37
2018-12-07T06:51:00.484Z,98114.31
2018-12-07T06:53:29.339Z,98112.41
2018-12-07T06:55:58.239Z,98111.23
2018-12-07T06:58:27.107Z,98106.41
2018-12-07T07:00:56.019Z,98108.55
2018-12-07T07:03:24.901Z,98105.84
2018-12-07T07:05:53.759Z,98101.70
2018-12-07T07:08:23.151Z,98102.81
2018-12-07T07:10:51.994Z,98098.03
2018-12-07T07:13:20.971Z,98102.88
2018-12-07T07:15:49.814Z,98101.36
2018-12-07T07:18:18.756Z,98100.33
2018-12-07T07:20:48.014Z,98096.53
2018-12-07T07:23:18.589Z,98090.02
2018-12-07T07:25:47.718Z,98081.66
2018-12-07T07:28:16.551Z,98080.64
2018-12-07T07:30:45.464Z,98084.62
2018-12-07T07:33:14.308Z,98074.67
2018-12-07T07:35:43.300Z,98068.19
2018-12-07T07:38:12.224Z,98080.22
2018-12-07T07:40:41.127Z,98068.52
2018-12-07T07:43:10.339Z,98064.77
2018-12-07T07:45:39.271Z,98067.64
2018-12-07T07:48:08.131Z,98064.73
2018-12-07T07:50:36.987Z,98064.17
2018-12-07T07:53:05.859Z,98057.46
2018-12-07T07:55:34.731Z,98054.85
2018-12-07T07:58:03.624Z,98051.97
2018-12-07T08:00:32.532Z,98054.19
2018-12-07T08:03:01.371Z,98052.09
2018-12-07T08:05:30.206Z,98048.91
2018-12-07T08:07:59.095Z,98037.95
2018-12-07T08:10:27.961Z,98042.90
2018-12-07T08:12:56.798Z,98032.75
2018-12-07T08:15:25.649Z,98032.05
2018-12-07T08:17:54.542Z,98033.08
2018-12-07T08:20:23.396Z,98033.23
2018-12-07T08:22:52.380Z,98026.53
2018-12-07T08:25:21.256Z,98021.67
2018-12-07T08:27:50.259Z,98023.64
2018-12-07T08:30:19.116Z,98026.06
2018-12-07T08:32:48.036Z,98010.06
2018-12-07T08:35:16.908Z,98006.79
2018-12-07T08:37:45.895Z,98012.83
2018-12-07T08:40:14.791Z,98004.69
2018-12-07T08:42:43.720Z,97995.75
2018-12-07T08:45:12.725Z,97991.36
2018-12-07T08:47:41.600Z,97989.84
2018-12-07T08:50:10.690Z,97988.53
2018-12-07T08:52:39.682Z,97986.91
2018-12-07T08:55:08.634Z,97984.69
2018-12-07T08:57:37.574Z,97984.78
2018-12-07T09:00:08.510Z,97979.28
2018-12-07T09:02:37.373Z,97969.84
2018-12-07T09:05:06.524Z,97972.20
2018-12-07T09:07:35.653Z,97970.97
2018-12-07T09:10:05.080Z,97961.72
2018-12-07T09:12:34.002Z,97962.01
2018-12-07T09:15:03.002Z,97961.34
2018-12-07T09:17:31.908Z,97952.83
2018-12-07T09:20:00.848Z,97957.59
2018-12-07T09:22:29.910Z,97957.00
2018-12-07T09:24:58.867Z,97949.47
2018-12-07T09:27:27.728Z,97942.62
2018-12-07T09:29:56.568Z,97933.13
2018-12-07T09:32:25.416Z,97924.62
2018-12-07T09:34:54.303Z,97918.95
2018-12-07T09:37:23.163Z,97923.27
2018-12-07T09:39:52.096Z,97918.20
2018-12-07T09:42:20.952Z,97919.98
2018-12-07T09:44:49.801Z,97919.41
2018-12-07T09:47:18.703Z,97918.54
2018-12-07T09:49:47.603Z,97911.99
2018-12-07T09:52:16.553Z,97906.11
2018-12-07T09:54:45.471Z,97900.06
2018-12-07T09:57:14.375Z,97891.69
2018-12-07T09:59:43.299Z,97887.93
2018-12-07T10:02:12.155Z,97883.33
2018-12-07T10:04:40.990Z,97875.73
2018-12-07T10:07:09.870Z,97866.11
2018-12-07T10:09:38.791Z,97858.95
2018-12-07T10:12:07.647Z,97854.47
2018-12-07T10:14:36.889Z,97852.34
2018-12-07T10:17:05.833Z,97841.75
2018-12-07T10:19:34.666Z,97828.94
2018-12-07T10:22:03.519Z,97829.53
2018-12-07T10:24:33.654Z,97823.17
2018-12-07T10:27:06.652Z,97819.34
2018-12-07T10:29:35.708Z,97807.28
2018-12-07T10:32:04.562Z,97808.13
2018-12-07T10:34:34.491Z,97808.72
2018-12-07T10:37:03.340Z,97802.95
2018-12-07T10:39:32.168Z,97795.77
2018-12-07T10:42:01.080Z,97789.16
2018-12-07T10:44:30.030Z,97779.95
2018-12-07T10:46:58.920Z,97774.27
2018-12-07T10:49:27.899Z,97772.27
2018-12-07T10:51:56.750Z,97757.55
2018-12-07T10:54:25.593Z,97749.86
2018-12-07T10:56:54.548Z,97742.55
2018-12-07T10:59:24.408Z,97737.36
2018-12-07T11:01:58.816Z,97734.27
2018-12-07T11:04:33.084Z,97736.00
2018-12-07T11:07:07.320Z,97729.77
2018-12-07T11:09:41.749Z,97727.02
2018-12-07T11:12:15.973Z,97719.55
2018-12-07T11:14:50.138Z,97723.55
2018-12-07T11:17:24.263Z,97708.29
2018-12-07T11:19:58.587Z,97699.73
2018-12-07T11:22:32.795Z,97692.91
2018-12-07T11:25:07.018Z,97679.55
2018-12-07T11:27:41.227Z,97674.16
2018-12-07T11:30:15.697Z,97662.67
2018-12-07T11:32:50.119Z,97666.13
2018-12-07T11:35:23.211Z,97659.70
2018-12-07T11:37:52.067Z,97651.38
2018-12-07T11:40:20.903Z,97642.77
2018-12-07T11:42:51.711Z,97639.20
2018-12-07T11:45:20.635Z,97636.30
2018-12-07T11:47:49.634Z,97638.48
2018-12-07T11:50:18.556Z,97639.37
2018-12-07T11:52:47.509Z,97630.97
2018-12-07T11:55:16.418Z,97629.69
2018-12-07T11:57:45.336Z,97625.33
2018-12-07T12:00:15.665Z,97628.05
2018-12-07T12:02:44.596Z,97627.94
2018-12-07T12:05:13.434Z,97633.22
2018-12-07T12:07:42.390Z,97621.69
2018-12-07T12:10:11.244Z,97623.64
2018-12-07T12:12:42.075Z,97619.65
2018-12-07T12:15:11.072Z,97617.02
2018-12-07T12:17:39.963Z,97615.86
2018-12-07T12:20:09.460Z,97614.88
2018-12-07T12:22:38.524Z,97608.73
2018-12-07T12:25:07.540Z,97602.59
2018-12-07T12:27:36.478Z,97601.96
2018-12-07T12:30:05.911Z,97597.74
2018-12-07T12:32:34.829Z,97594.95
2018-12-07T12:35:03.896Z,97596.44
2018-12-07T12:37:32.790Z,97587.45
2018-12-07T12:40:01.702Z,97576.32
2018-12-07T12:42:30.865Z,97568.05
2018-12-07T12:44:59.747Z,97565.73
2018-12-07T12:47:28.697Z,97553.95
2018-12-07T12:49:57.610Z,97548.91
2018-12-07T12:52:26.547Z,97532.19
2018-12-07T12:54:56.259Z,97523.10
2018-12-07T12:57:25.769Z,97515.55
2018-12-07T12:59:54.995Z,97515.00
2018-12-07T13:02:23.926Z,97508.30
2018-12-07T13:04:52.903Z,97506.39
2018-12-07T13:07:21.824Z,97501.47
2018-12-07T13:09:50.674Z,97489.09
2018-12-07T13:12:19.531Z,97487.47
2018-12-07T13:14:48.381Z,97473.69
2018-12-07T13:17:17.232Z,97459.57
2018-12-07T13:19:46.078Z,97455.11
2018-12-07T13:22:14.971Z,97444.94
2018-12-07T13:24:43.912Z,97448.27
2018-12-07T13:27:12.893Z,97445.59
2018-12-07T13:29:41.728Z,97437.64
2018-12-07T13:32:10.579Z,97432.95
2018-12-07T13:34:39.510Z,97423.70
2018-12-07T13:37:08.347Z,97422.18
2018-12-07T13:39:43.860Z,97416.47
2018-12-07T13:42:12.768Z,97426.03
2018-12-07T13:44:41.845Z,97426.91
2018-12-07T13:47:10.903Z,97424.62
2018-12-07T13:49:40.019Z,97420.00
2018-12-07T13:52:09.217Z,97411.42
2018-12-07T13:54:38.386Z,97411.75
2018-12-07T13:57:09.454Z,97394.05
2018-12-07T13:59:38.535Z,97392.41
2018-12-07T14:02:07.647Z,97395.82
2018-12-07T14:04:36.673Z,97387.48
2018-12-07T14:07:05.562Z,97394.52
2018-12-07T14:09:34.660Z,97391.20
2018-12-07T14:12:03.641Z,97392.33
2018-12-07T14:14:32.849Z,97390.03
2018-12-07T14:17:02.677Z,97389.59
2018-12-07T14:19:31.813Z,97395.45
2018-12-07T14:22:00.792Z,97394.48
2018-12-07T14:24:29.704Z,97383.58
2018-12-07T14:26:59.726Z,97398.08
2018-12-07T14:29:29.796Z,97390.00
2018-12-07T14:31:59.262Z,97389.99
2018-12-07T14:34:28.282Z,97390.02
2018-12-07T14:36:57.362Z,97402.30
2018-12-07T14:39:26.473Z,97400.08
2018-12-07T14:41:55.419Z,97394.06
2018-12-07T14:44:24.475Z,97403.13
2018-12-07T14:46:53.760Z,97395.58
2018-12-07T14:49:23.924Z,97392.42
2018-12-07T14:51:55.299Z,97391.12
2018-12-07T14:54:24.885Z,97385.75
2018-12-07T14:56:53.935Z,97382.17
2018-12-07T14:59:23.265Z,97376.52
2018-12-07T15:01:52.142Z,97378.78
2018-12-07T15:04:21.053Z,97370.25
2018-12-07T15:06:50.052Z,97364.52
2018-12-07T15:09:18.886Z,97364.30
2018-12-07T15:11:47.901Z,97361.94
2018-12-07T15:14:17.078Z,97352.97
2018-12-07T15:16:46.021Z,97343.77
2018-12-07T15:19:14.981Z,97343.18
2018-12-07T15:21:43.909Z,97343.03
2018-12-07T15:24:12.911Z,97344.70
2018-12-07T15:26:41.905Z,97339.16
2018-12-07T15:29:10.826Z,97339.87
2018-12-07T15:31:39.852Z,97340.22
2018-12-07T15:34:08.836Z,97330.86
2018-12-07T15:36:37.975Z,97319.98
2018-12-07T15:39:08.876Z,97326.84
2018-12-07T15:41:37.790Z,97323.11
2018-12-07T15:44:06.788Z,97321.28
2018-12-07T15:46:35.899Z,97314.98
2018-12-07T15:49:04.922Z,97313.27
2018-12-07T15:51:33.965Z,97306.25
2018-12-07T15:54:03.134Z,97304.23
2018-12-07T16:17:15.830Z,97246.89
2018-12-07T16:19:44.838Z,97218.07
2018-12-07T16:22:13.702Z,97221.34
2018-12-07T16:24:43.687Z,97220.12
2018-12-07T16:27:12.768Z,97206.98
2018-12-07T16:29:41.752Z,97196.80
2018-12-07T16:32:10.658Z,97191.69
2018-12-07T16:34:39.586Z,97184.23
2018-12-07T16:37:08.577Z,97180.16
2018-12-07T16:39:37.484Z,97178.59
2018-12-07T16:42:06.350Z,97185.02
2018-12-07T16:44:35.557Z,97174.51
2018-12-07T16:47:04.588Z,97163.85
2018-12-07T16:49:33.615Z,97156.55
2018-12-07T16:52:02.818Z,97144.66
2018-12-07T16:54:31.890Z,97149.32
2018-12-07T16:57:01.164Z,97141.58
2018-12-07T16:59:30.293Z,97141.86
2018-12-07T17:01:59.406Z,97131.34
2018-12-07T17:04:28.289Z,97143.35
2018-12-07T17:06:57.240Z,97140.20
2018-12-07T17:09:26.260Z,97131.84
2018-12-07T17:11:55.502Z,97126.86
2018-12-07T17:14:24.660Z,97116.70
2018-12-07T17:16:53.830Z,97128.85
2018-12-07T17:19:23.146Z,97117.69
2018-12-07T17:21:52.286Z,97122.47
2018-12-07T17:24:21.311Z,97111.25
2018-12-07T17:26:50.397Z,97099.73
2018-12-07T17:29:19.506Z,97095.02
2018-12-07T17:31:48.712Z,97099.98
2018-12-07T17:34:17.787Z,97107.20
2018-12-07T17:36:46.780Z,97120.30
2018-12-07T17:39:15.945Z,97119.20
2018-12-07T17:41:44.822Z,97108.36
2018-12-07T17:44:15.522Z,97097.72
2018-12-07T17:46:44.610Z,97094.09
2018-12-07T17:49:13.468Z,97093.50
2018-12-07T17:51:42.515Z,97100.31
2018-12-07T17:54:11.609Z,97109.38
2018-12-07T17:56:40.727Z,97101.25
2018-12-07T17:59:09.665Z,97116.06
2018-12-07T18:01:38.586Z,97104.70
2018-12-07T18:04:07.517Z,97104.13
2018-12-07T18:06:36.452Z,97093.89
2018-12-07T18:09:08.538Z,97094.58
2018-12-07T18:11:38.806Z,97098.88
2018-12-07T18:14:07.942Z,97092.11
2018-12-07T18:16:37.175Z,97089.71
2018-12-07T18:19:06.121Z,97087.41
2018-12-07T18:21:35.071Z,97100.05
2018-12-07T18:24:04.382Z,97092.14
2018-12-07T18:26:33.459Z,97094.84
2018-12-07T18:29:02.512Z,97089.87
2018-12-07T18:31:31.981Z,97096.62
2018-12-07T18:34:01.042Z,97102.33
2018-12-07T18:36:30.199Z,97103.94
2018-12-07T18:38:59.400Z,97107.69
2018-12-07T18:41:28.546Z,97102.13
2018-12-07T18:43:57.637Z,97098.16
2018-12-07T18:46:26.821Z,97080.30
2018-12-07T18:48:55.838Z,97084.68
2018-12-07T18:51:25.113Z,97083.45
2018-12-07T18:53:54.089Z,97094.61
2018-12-07T18:56:23.165Z,97088.70
2018-12-07T18:58:52.444Z,97072.47
2018-12-07T19:01:21.350Z,97044.67
2018-12-07T19:03:50.428Z,97036.63
2018-12-07T19:06:19.491Z,97055.49
2018-12-07T19:08:48.554Z,97055.69
2018-12-07T19:11:17.622Z,97054.78
2018-12-07T19:13:46.582Z,97044.13
2018-12-07T19:16:17.299Z,97035.84
2018-12-07T19:18:46.215Z,97042.90
2018-12-07T19:21:15.102Z,97045.91
2018-12-07T19:23:44.188Z,97047.25
2018-12-07T19:26:13.240Z,97046.70
2018-12-07T19:28:42.563Z,97037.55
2018-12-07T19:31:11.553Z,97042.77
2018-12-07T19:33:40.443Z,97046.00
2018-12-07T19:36:09.516Z,97057.27
2018-12-07T19:38:38.629Z,97058.48
2018-12-07T19:41:07.800Z,97052.57
2018-12-07T19:43:36.826Z,97057.68
2018-12-07T19:46:05.964Z,97053.41
2018-12-07T19:48:35.322Z,97040.62
2018-12-07T19:51:07.654Z,97053.20
2018-12-07T19:53:36.699Z,97059.34
2018-12-07T19:56:05.878Z,97056.78
2018-12-07T19:58:34.929Z,97060.52
2018-12-07T20:01:03.954Z,97071.86
2018-12-07T20:03:33.369Z,97078.30
2018-12-07T20:06:02.384Z,97075.89
2018-12-07T20:08:31.390Z,97072.09
2018-12-07T20:11:00.418Z,97073.66
2018-12-07T20:13:29.396Z,97081.84
2018-12-07T20:15:58.291Z,97070.73
2018-12-07T20:18:27.302Z,97076.23
2018-12-07T20:20:56.289Z,97072.08
2018-12-07T20:23:26.571Z,97076.94
2018-12-07T20:25:55.741Z,97082.02
2018-12-07T20:28:25.007Z,97080.13
2018-12-07T20:30:54.319Z,97083.06
2018-12-07T20:33:23.336Z,97071.94
2018-12-07T20:35:52.510Z,97080.92
2018-12-07T20:38:21.621Z,97084.51
2018-12-07T20:40:50.846Z,97070.50
2018-12-07T20:43:19.878Z,97067.23
2018-12-07T20:45:48.774Z,97065.48
2018-12-07T20:48:17.724Z,97058.42
2018-12-07T20:50:46.653Z,97059.04
2018-12-07T20:53:15.718Z,97066.30
2018-12-07T20:55:44.798Z,97059.77
2018-12-07T20:58:14.429Z,97054.41
2018-12-07T21:00:43.516Z,97075.34
2018-12-07T21:03:12.445Z,97066.44
2018-12-07T21:05:58.142Z,97069.64
2018-12-07T21:09:16.496Z,97070.70
2018-12-07T21:11:51.324Z,97060.00
2018-12-07T21:14:27.938Z,97069.13
2018-12-07T21:17:09.180Z,97061.94
2018-12-07T21:19:41.466Z,97076.81
2018-12-07T21:22:11.739Z,97072.83
2018-12-07T21:24:41.964Z,97068.02
2018-12-07T21:27:11.276Z,97067.75
2018-12-07T21:29:40.670Z,97054.66
2018-12-07T21:32:15.838Z,97059.49
2018-12-07T21:34:54.872Z,97064.85
2018-12-07T21:37:25.030Z,97067.97
2018-12-07T21:40:31.894Z,97053.56
2018-12-07T21:43:01.604Z,97042.92
2018-12-07T21:45:31.172Z,97039.34
2018-12-07T21:48:19.472Z,97046.56
2018-12-07T21:50:54.395Z,97030.16
2018-12-07T21:53:24.334Z,97020.09
2018-12-07T21:55:54.315Z,97008.19
2018-12-07T21:58:23.543Z,97011.17
2018-12-07T22:00:52.775Z,97012.52
2018-12-07T22:03:21.877Z,97007.15
2018-12-07T22:05:51.176Z,97005.31
2018-12-07T22:08:20.279Z,97010.66
2018-12-07T22:10:49.638Z,97009.22
2018-12-07T22:13:19.343Z,97005.59
2018-12-07T22:15:48.209Z,97002.86
2018-12-07T22:18:17.484Z,97011.67
2018-12-07T22:20:46.633Z,97008.13
2018-12-07T22:23:15.779Z,97007.66
2018-12-07T22:25:45.144Z,97012.06
2018-12-07T22:28:14.260Z,96997.94
2018-12-07T22:30:43.596Z,97000.73
2018-12-07T22:33:12.719Z,96997.72
2018-12-07T22:35:41.809Z,97001.34
2018-12-07T22:38:10.966Z,97000.30
2018-12-07T22:40:40.178Z,96991.37
2018-12-07T22:43:09.164Z,96999.16
2018-12-07T22:45:38.528Z,96998.81
2018-12-07T22:48:07.744Z,96991.42
2018-12-07T22:50:36.768Z,96984.07
2018-12-07T22:53:05.683Z,96995.30
2018-12-07T22:55:34.862Z,96992.63
2018-12-07T22:58:03.979Z,96989.23
2018-12-07T23:00:32.894Z,96988.59
2018-12-07T23:03:03.752Z,96982.52
2018-12-07T23:05:32.602Z,96981.73
2018-12-07T23:08:02.678Z,96971.38
2018-12-07T23:10:31.591Z,96982.52
2018-12-07T23:13:00.711Z,96981.52
2018-12-07T23:15:29.595Z,96995.74
2018-12-07T23:17:58.554Z,96999.03
2018-12-07T23:20:27.454Z,96984.45
2018-12-07T23:22:56.451Z,96993.52
2018-12-07T23:25:25.319Z,97000.73
2018-12-07T23:27:54.246Z,96995.23
2018-12-07T23:30:23.146Z,96987.94
2018-12-07T23:32:52.156Z,96989.26
2018-12-07T23:35:21.083Z,97007.61
2018-12-07T23:37:49.963Z,97000.75
2018-12-07T23:40:18.798Z,96985.31
2018-12-07T23:42:47.718Z,96996.44
2018-12-07T23:45:16.562Z,96999.65
2018-12-07T23:47:45.404Z,96996.14
2018-12-07T23:50:14.231Z,97015.17
2018-12-07T23:52:43.220Z,97028.14
2018-12-07T23:55:12.128Z,97023.06
2018-12-07T23:57:40.980Z,97031.60
